Time;durP1;ratioP1;P1;durP2;ratioP2;P2;SDS_P1;SDS_P2;PMS_P1;PMS_P2;Temp;Humidity;BMP_temperature;BMP_pressure;BME280_temperature;BME280_humidity;BME280_pressure;Samples;Min_cycle;Max_cycle;Signal;HPM_P1;HPM_P2
2023/12/23 00:01:45;;;;;;;13.33;3.03;;;4.70;99.90;;;;;;5108889;28;20063;-75
2023/12/23 00:04:11;;;;;;;13.63;3.30;;;4.70;99.90;;;;;;5099918;28;20311;-75
2023/12/23 00:06:37;;;;;;;14.17;3.13;;;4.60;99.90;;;;;;5107276;28;20044;-75
2023/12/23 00:09:02;;;;;;;15.30;2.97;;;4.70;99.90;;;;;;5100913;28;20036;-75
2023/12/23 00:11:28;;;;;;;12.40;3.13;;;4.70;99.90;;;;;;5103432;28;20048;-76
2023/12/23 00:13:54;;;;;;;13.00;3.10;;;4.70;99.90;;;;;;5101192;28;20039;-75
2023/12/23 00:16:20;;;;;;;17.03;3.07;;;4.70;99.90;;;;;;5088341;28;20146;-74
2023/12/23 00:18:45;;;;;;;10.07;2.90;;;4.80;99.90;;;;;;5107621;28;20040;-75
2023/12/23 00:21:11;;;;;;;12.27;2.90;;;4.80;99.90;;;;;;5095063;28;20090;-75
2023/12/23 00:23:37;;;;;;;15.73;3.30;;;4.90;99.90;;;;;;5104691;28;20040;-76
2023/12/23 00:26:02;;;;;;;13.33;3.90;;;4.80;99.90;;;;;;5101990;28;20062;-75
2023/12/23 00:28:28;;;;;;;17.63;3.63;;;4.80;99.90;;;;;;5086795;28;20035;-75
2023/12/23 00:30:54;;;;;;;12.83;3.10;;;4.80;99.90;;;;;;5100674;28;20414;-74
2023/12/23 00:33:19;;;;;;;13.10;3.20;;;4.80;99.90;;;;;;5102867;28;20135;-75
2023/12/23 00:35:45;;;;;;;15.50;3.50;;;4.90;99.90;;;;;;5106438;28;20047;-75
2023/12/23 00:38:10;;;;;;;11.00;2.80;;;4.90;99.90;;;;;;5103530;28;20035;-75
2023/12/23 00:40:36;;;;;;;11.57;3.00;;;4.80;99.90;;;;;;5104602;28;20055;-75
2023/12/23 00:43:03;;;;;;;14.60;3.10;;;4.80;99.90;;;;;;5102478;28;20526;-75
2023/12/23 00:45:29;;;;;;;9.00;2.63;;;4.80;99.90;;;;;;5104163;28;20056;-75
2023/12/23 00:47:54;;;;;;;16.33;2.97;;;4.90;99.90;;;;;;5101216;28;20044;-73
2023/12/23 00:50:20;;;;;;;17.33;3.57;;;4.90;99.90;;;;;;5102739;28;20035;-75
2023/12/23 00:52:46;;;;;;;12.30;3.23;;;4.90;99.90;;;;;;5101295;28;20078;-75
2023/12/23 00:55:11;;;;;;;13.60;2.90;;;4.90;99.90;;;;;;5100820;28;20368;-75
2023/12/23 00:57:37;;;;;;;15.30;3.40;;;5.00;99.90;;;;;;5102320;28;20110;-75
2023/12/23 01:00:03;;;;;;;15.07;3.00;;;5.10;99.90;;;;;;5084478;28;20185;-75
2023/12/23 01:02:29;;;;;;;12.73;2.70;;;5.10;99.90;;;;;;5104393;28;20050;-75
2023/12/23 01:04:54;;;;;;;12.53;2.90;;;5.10;99.90;;;;;;5100339;28;20044;-75
2023/12/23 01:07:21;;;;;;;11.57;2.90;;;5.10;99.90;;;;;;5099965;28;20177;-75
2023/12/23 01:09:46;;;;;;;16.57;3.30;;;5.20;99.90;;;;;;5102844;28;20055;-75
2023/12/23 01:12:12;;;;;;;15.57;2.83;;;5.20;99.90;;;;;;5097117;28;20036;-75
2023/12/23 01:14:38;;;;;;;17.43;3.53;;;5.30;99.90;;;;;;5102039;28;20181;-75
2023/12/23 01:17:03;;;;;;;15.50;3.03;;;5.30;99.90;;;;;;5101656;28;20043;-75
2023/12/23 01:19:29;;;;;;;10.70;3.03;;;5.40;99.90;;;;;;5102681;28;20607;-75
2023/12/23 01:21:55;;;;;;;15.17;2.97;;;5.40;99.90;;;;;;5084529;28;20094;-75
2023/12/23 01:24:20;;;;;;;20.77;3.87;;;5.40;99.90;;;;;;5104851;28;20040;-75
2023/12/23 01:26:46;;;;;;;21.67;4.07;;;5.40;99.90;;;;;;5105820;28;20044;-75
2023/12/23 01:29:12;;;;;;;14.90;3.67;;;5.50;99.90;;;;;;5100409;28;20517;-75
2023/12/23 01:31:37;;;;;;;20.23;4.30;;;5.50;99.90;;;;;;5096587;28;20078;-75
2023/12/23 01:34:03;;;;;;;15.37;3.53;;;5.50;99.90;;;;;;5084747;28;20103;-75
2023/12/23 01:36:29;;;;;;;17.17;3.80;;;5.60;99.90;;;;;;5101488;28;20051;-75
2023/12/23 01:38:54;;;;;;;19.87;4.03;;;5.60;99.90;;;;;;5105839;28;20047;-75
2023/12/23 01:41:20;;;;;;;17.50;3.33;;;5.60;99.90;;;;;;5102236;28;20127;-76
2023/12/23 01:43:46;;;;;;;18.07;4.20;;;5.60;99.90;;;;;;5101516;28;20150;-76
2023/12/23 01:46:12;;;;;;;11.50;3.23;;;5.60;99.90;;;;;;5103481;28;20064;-76
2023/12/23 01:48:42;;;;;;;16.33;3.70;;;5.60;99.90;;;;;;5108042;28;20047;-75
2023/12/23 01:51:09;;;;;;;15.17;3.43;;;5.60;99.90;;;;;;5101939;28;20520;-76
2023/12/23 01:53:36;;;;;;;14.43;3.53;;;5.70;99.90;;;;;;5106130;28;20047;-76
2023/12/23 01:56:01;;;;;;;13.73;3.07;;;5.70;99.90;;;;;;5109056;28;20150;-76
2023/12/23 01:58:27;;;;;;;16.70;3.47;;;5.70;99.90;;;;;;5107222;28;20085;-75
2023/12/23 02:00:53;;;;;;;16.40;3.30;;;5.70;99.90;;;;;;5101457;28;20564;-76
2023/12/23 02:03:19;;;;;;;15.80;3.77;;;5.80;99.90;;;;;;5105717;28;20043;-74
2023/12/23 02:05:45;;;;;;;14.90;2.93;;;5.80;99.90;;;;;;5108401;28;20511;-75
2023/12/23 02:08:12;;;;;;;14.50;3.27;;;5.80;99.90;;;;;;5104363;28;20323;-75
2023/12/23 02:10:39;;;;;;;11.67;3.23;;;5.90;99.90;;;;;;5108275;28;20040;-75
2023/12/23 02:13:11;;;;;;;14.07;3.13;;;5.90;99.90;;;;;;5089838;28;20051;-75
2023/12/23 02:15:37;;;;;;;11.80;2.83;;;5.90;99.90;;;;;;5085287;28;20051;-75
2023/12/23 02:18:03;;;;;;;8.73;3.23;;;5.90;99.90;;;;;;5108357;28;20052;-75
2023/12/23 02:20:29;;;;;;;14.43;2.90;;;6.00;99.90;;;;;;5070989;28;20329;-75
2023/12/23 02:22:55;;;;;;;12.87;3.03;;;5.90;99.90;;;;;;5107531;28;20048;-75
2023/12/23 02:25:21;;;;;;;14.73;2.90;;;6.00;99.90;;;;;;5103846;28;20039;-76
2023/12/23 02:27:52;;;;;;;13.03;2.93;;;6.00;99.90;;;;;;5089215;28;20048;-76
2023/12/23 02:30:18;;;;;;;11.17;2.30;;;6.00;99.90;;;;;;5103354;28;20065;-76
2023/12/23 02:32:45;;;;;;;12.80;2.97;;;6.00;99.90;;;;;;5102989;28;20209;-76
2023/12/23 02:35:12;;;;;;;12.20;2.67;;;6.00;99.90;;;;;;5103266;28;20043;-75
2023/12/23 02:37:38;;;;;;;14.83;2.63;;;5.90;99.90;;;;;;5104072;28;20152;-76
2023/12/23 02:40:04;;;;;;;14.27;2.90;;;5.90;99.90;;;;;;5102814;28;20098;-76
2023/12/23 02:42:30;;;;;;;12.53;2.60;;;5.90;99.90;;;;;;5087093;28;20051;-76
2023/12/23 02:44:56;;;;;;;11.63;2.43;;;5.90;99.90;;;;;;5102149;28;20040;-75
2023/12/23 02:47:21;;;;;;;13.97;2.83;;;5.90;99.90;;;;;;5106472;28;20304;-75
2023/12/23 02:49:47;;;;;;;9.57;2.23;;;5.90;99.90;;;;;;5089760;28;20036;-76
2023/12/23 02:52:13;;;;;;;10.80;2.20;;;5.90;99.90;;;;;;5081516;28;20042;-76
2023/12/23 02:54:38;;;;;;;9.87;2.10;;;5.90;99.90;;;;;;5105501;28;20069;-75
2023/12/23 02:57:04;;;;;;;9.07;1.73;;;5.90;99.90;;;;;;5070004;28;20031;-75
2023/12/23 02:59:30;;;;;;;7.50;2.10;;;5.80;99.90;;;;;;5085121;28;20105;-74
2023/12/23 03:01:56;;;;;;;5.43;2.17;;;5.80;99.90;;;;;;5105095;28;20050;-76
2023/12/23 03:04:21;;;;;;;12.00;1.70;;;5.90;99.90;;;;;;5079166;28;20051;-76
2023/12/23 03:06:47;;;;;;;6.90;2.10;;;5.80;99.90;;;;;;5089001;28;20063;-76
2023/12/23 03:09:13;;;;;;;12.93;2.10;;;5.70;99.90;;;;;;5100038;28;20052;-75
2023/12/23 03:11:38;;;;;;;6.47;2.00;;;5.70;99.90;;;;;;5090301;28;20604;-76
2023/12/23 03:14:05;;;;;;;9.13;2.37;;;5.70;99.90;;;;;;5102156;28;20060;-76
2023/12/23 03:16:34;;;;;;;7.77;1.83;;;5.60;99.90;;;;;;5104759;28;20052;-75
2023/12/23 03:19:03;;;;;;;11.50;2.30;;;5.60;99.90;;;;;;5103316;28;20051;-76
2023/12/23 03:21:32;;;;;;;8.73;2.63;;;5.60;99.90;;;;;;5101236;28;20058;-76
2023/12/23 03:23:57;;;;;;;14.07;2.10;;;5.50;99.90;;;;;;5105089;28;20040;-75
2023/12/23 03:26:23;;;;;;;9.37;1.97;;;5.50;99.90;;;;;;5104172;28;20098;-76
2023/12/23 03:28:49;;;;;;;11.13;2.53;;;5.50;99.90;;;;;;5101845;28;20048;-76
2023/12/23 03:31:15;;;;;;;8.50;2.10;;;5.40;99.90;;;;;;5104980;28;20558;-76
2023/12/23 03:33:41;;;;;;;11.57;2.17;;;5.40;99.90;;;;;;5099470;28;20039;-74
2023/12/23 03:36:07;;;;;;;10.00;1.90;;;5.40;99.90;;;;;;5108350;28;20115;-75
2023/12/23 03:38:33;;;;;;;13.23;2.33;;;5.40;99.90;;;;;;5102621;28;20052;-76
2023/12/23 03:40:59;;;;;;;8.97;2.17;;;5.40;99.90;;;;;;5105231;28;20050;-76
2023/12/23 03:43:25;;;;;;;9.57;2.20;;;5.40;99.90;;;;;;5106027;28;20043;-76
2023/12/23 03:45:50;;;;;;;10.37;2.50;;;5.40;99.90;;;;;;5107853;28;20068;-75
2023/12/23 03:48:16;;;;;;;9.63;2.30;;;5.40;99.90;;;;;;5105661;28;20107;-76
2023/12/23 03:50:42;;;;;;;8.77;2.40;;;5.40;99.90;;;;;;5101381;28;20055;-76
2023/12/23 03:53:08;;;;;;;13.17;2.43;;;5.40;99.90;;;;;;5107721;28;20031;-76
2023/12/23 03:55:34;;;;;;;12.67;2.93;;;5.40;99.90;;;;;;5102689;28;20047;-76
2023/12/23 03:58:00;;;;;;;6.97;2.10;;;5.40;99.90;;;;;;5104322;28;20441;-76
2023/12/23 04:00:26;;;;;;;11.90;2.53;;;5.40;99.90;;;;;;5086554;28;20112;-75
2023/12/23 04:02:52;;;;;;;7.43;2.20;;;5.40;99.90;;;;;;5102585;28;20082;-76
2023/12/23 04:05:18;;;;;;;9.43;2.20;;;5.40;99.90;;;;;;5103477;28;20063;-76
2023/12/23 04:07:49;;;;;;;11.40;2.17;;;5.40;99.90;;;;;;5104648;28;20052;-76
2023/12/23 04:10:16;;;;;;;12.67;2.47;;;5.40;99.90;;;;;;5082574;28;20080;-76
2023/12/23 04:12:42;;;;;;;9.53;2.40;;;5.40;99.90;;;;;;5098734;28;20302;-76
2023/12/23 04:15:08;;;;;;;10.20;2.43;;;5.40;99.90;;;;;;5103528;28;20169;-76
2023/12/23 04:17:34;;;;;;;10.33;1.97;;;5.40;99.90;;;;;;5099163;28;20044;-77
2023/12/23 04:20:00;;;;;;;10.77;2.10;;;5.40;99.90;;;;;;5100764;28;20044;-74
2023/12/23 04:22:26;;;;;;;8.93;2.37;;;5.40;99.90;;;;;;5086032;28;20123;-76
2023/12/23 04:24:52;;;;;;;11.77;2.03;;;5.50;99.90;;;;;;5102175;28;20421;-76
2023/12/23 04:27:18;;;;;;;7.40;1.77;;;5.40;99.90;;;;;;5106559;28;20104;-76
2023/12/23 04:29:43;;;;;;;7.73;2.20;;;5.50;99.90;;;;;;5103445;28;20063;-76
2023/12/23 04:32:10;;;;;;;11.30;2.37;;;5.40;99.90;;;;;;5102570;28;20416;-76
2023/12/23 04:34:37;;;;;;;8.83;1.80;;;5.40;99.90;;;;;;5103199;28;20032;-75
2023/12/23 04:37:03;;;;;;;7.37;1.60;;;5.50;99.90;;;;;;5087043;28;20268;-76
2023/12/23 04:39:29;;;;;;;9.97;2.10;;;5.40;99.90;;;;;;5107999;28;20529;-76
2023/12/23 04:41:54;;;;;;;10.87;2.20;;;5.40;99.90;;;;;;5100920;28;20042;-74
2023/12/23 04:44:21;;;;;;;7.03;1.77;;;5.50;99.90;;;;;;5099243;28;20047;-76
2023/12/23 04:46:48;;;;;;;8.53;2.00;;;5.50;99.90;;;;;;5098035;28;20077;-76
2023/12/23 04:49:14;;;;;;;8.37;2.20;;;5.50;99.90;;;;;;5103212;28;20040;-75
2023/12/23 04:51:43;;;;;;;6.37;1.67;;;5.50;99.90;;;;;;5102780;28;20168;-77
2023/12/23 04:54:10;;;;;;;6.03;1.50;;;5.50;99.90;;;;;;5102184;28;20048;-76
2023/12/23 04:56:36;;;;;;;7.20;1.80;;;5.50;99.90;;;;;;5101048;28;20052;-76
2023/12/23 04:59:02;;;;;;;8.87;1.70;;;5.50;99.90;;;;;;5101285;28;20544;-76
2023/12/23 05:01:27;;;;;;;6.60;1.93;;;5.50;99.90;;;;;;5103992;28;20076;-76
2023/12/23 05:03:53;;;;;;;6.13;1.57;;;5.50;99.90;;;;;;5098751;28;20115;-76
2023/12/23 05:06:19;;;;;;;7.90;1.50;;;5.50;99.90;;;;;;5080993;28;20066;-76
2023/12/23 05:08:44;;;;;;;7.60;1.63;;;5.50;99.90;;;;;;5104587;28;20094;-76
2023/12/23 05:11:10;;;;;;;8.40;1.80;;;5.50;99.90;;;;;;5101771;28;20545;-76
2023/12/23 05:13:36;;;;;;;6.90;1.60;;;5.50;99.90;;;;;;5098686;28;20438;-76
2023/12/23 05:16:02;;;;;;;4.90;1.23;;;5.40;99.90;;;;;;5100568;28;20044;-76
2023/12/23 05:18:28;;;;;;;9.03;2.53;;;5.50;99.90;;;;;;5102669;28;20040;-76
2023/12/23 05:20:54;;;;;;;8.83;1.90;;;5.50;99.90;;;;;;5099815;28;20051;-77
2023/12/23 05:23:20;;;;;;;4.70;1.50;;;5.50;99.90;;;;;;5108674;28;20509;-77
2023/12/23 05:25:45;;;;;;;7.20;1.77;;;5.40;99.90;;;;;;5106323;28;20058;-77
2023/12/23 05:28:11;;;;;;;7.43;1.67;;;5.40;99.90;;;;;;5095567;28;20040;-77
2023/12/23 05:30:37;;;;;;;4.00;1.20;;;5.50;99.90;;;;;;5094015;28;20043;-76
2023/12/23 05:33:03;;;;;;;6.27;1.83;;;5.50;99.90;;;;;;5106862;28;20047;-77
2023/12/23 05:35:28;;;;;;;5.27;1.70;;;5.50;99.90;;;;;;5108120;28;20058;-76
2023/12/23 05:37:54;;;;;;;3.90;1.03;;;5.50;99.90;;;;;;5091307;28;20481;-76
2023/12/23 05:40:20;;;;;;;3.53;1.30;;;5.50;99.90;;;;;;5111301;28;20055;-77
2023/12/23 05:42:45;;;;;;;4.17;1.20;;;5.50;99.90;;;;;;5091492;28;20066;-77
2023/12/23 05:45:11;;;;;;;3.77;1.37;;;5.50;99.90;;;;;;5108146;28;20107;-76
2023/12/23 05:47:37;;;;;;;3.80;1.30;;;5.50;99.90;;;;;;5107860;27;20526;-77
2023/12/23 05:50:04;;;;;;;3.13;1.20;;;5.50;99.90;;;;;;5108707;27;20053;-77
2023/12/23 05:52:29;;;;;;;2.73;1.07;;;5.50;99.90;;;;;;5089696;28;20048;-77
2023/12/23 05:54:56;;;;;;;1.37;0.80;;;5.40;99.90;;;;;;5106783;28;20097;-77
2023/12/23 05:57:21;;;;;;;1.53;0.80;;;5.50;99.90;;;;;;5105538;28;20061;-78
2023/12/23 05:59:47;;;;;;;2.43;1.03;;;5.50;99.90;;;;;;5109247;28;20059;-76
2023/12/23 06:02:13;;;;;;;1.73;0.80;;;5.50;99.90;;;;;;5111199;28;20080;-77
2023/12/23 06:04:39;;;;;;;0.70;0.63;;;5.50;99.90;;;;;;5106144;28;20421;-77
2023/12/23 06:07:04;;;;;;;1.80;0.80;;;5.40;99.90;;;;;;5107769;28;20058;-76
2023/12/23 06:09:30;;;;;;;1.03;0.70;;;5.40;99.90;;;;;;5111221;28;20055;-77
2023/12/23 06:11:56;;;;;;;0.57;0.50;;;5.50;99.90;;;;;;5088404;28;20055;-77
2023/12/23 06:14:21;;;;;;;0.80;0.50;;;5.40;99.90;;;;;;5111673;28;20073;-76
2023/12/23 06:16:47;;;;;;;0.63;0.50;;;5.40;99.90;;;;;;5105464;28;20040;-77
2023/12/23 06:19:13;;;;;;;0.93;0.50;;;5.40;99.90;;;;;;5108368;28;20067;-76
2023/12/23 06:21:45;;;;;;;1.47;0.50;;;5.40;99.90;;;;;;5088698;28;20046;-77
2023/12/23 06:24:11;;;;;;;1.07;0.60;;;5.40;99.90;;;;;;5111689;28;20048;-75
2023/12/23 06:26:37;;;;;;;1.20;0.43;;;5.40;99.90;;;;;;5104466;28;20044;-77
2023/12/23 06:29:03;;;;;;;0.40;0.40;;;5.40;99.90;;;;;;5107947;28;20093;-76
2023/12/23 06:31:28;;;;;;;0.77;0.50;;;5.40;99.90;;;;;;5106102;28;20036;-76
2023/12/23 06:33:54;;;;;;;0.50;0.47;;;5.30;99.90;;;;;;5105486;28;20548;-76
2023/12/23 06:36:20;;;;;;;0.43;0.43;;;5.30;99.90;;;;;;5091045;28;20036;-76
2023/12/23 06:38:45;;;;;;;0.40;0.40;;;5.40;99.90;;;;;;5099741;28;20108;-75
2023/12/23 06:41:12;;;;;;;0.70;0.53;;;5.40;99.90;;;;;;5104850;28;20192;-76
2023/12/23 06:43:38;;;;;;;1.57;0.50;;;5.30;99.90;;;;;;5106016;28;20094;-76
2023/12/23 06:46:04;;;;;;;1.90;0.70;;;5.30;99.90;;;;;;5102219;28;20075;-75
2023/12/23 06:48:29;;;;;;;0.63;0.57;;;5.30;99.90;;;;;;5105121;28;20078;-76
2023/12/23 06:50:55;;;;;;;0.60;0.60;;;5.40;99.90;;;;;;5105565;28;20039;-76
2023/12/23 06:53:21;;;;;;;0.70;0.70;;;5.40;99.90;;;;;;5104738;28;20052;-76
2023/12/23 06:55:46;;;;;;;1.10;0.57;;;5.30;99.90;;;;;;5099451;28;20135;-77
2023/12/23 06:58:12;;;;;;;0.50;0.50;;;5.30;99.90;;;;;;5103578;28;20047;-77
2023/12/23 07:00:38;;;;;;;0.50;0.50;;;5.30;99.90;;;;;;5104171;28;20093;-76
2023/12/23 07:03:05;;;;;;;0.50;0.50;;;5.30;99.90;;;;;;5100061;28;20031;-76
2023/12/23 07:05:31;;;;;;;0.60;0.60;;;5.30;99.90;;;;;;5103481;28;20398;-76
2023/12/23 07:07:57;;;;;;;1.70;0.90;;;5.30;99.90;;;;;;5095348;28;20056;-87
2023/12/23 07:10:22;;;;;;;0.83;0.70;;;5.20;99.90;;;;;;5090470;28;20537;-76
2023/12/23 07:12:48;;;;;;;1.07;0.80;;;5.20;99.90;;;;;;5101231;28;20378;-76
2023/12/23 07:15:14;;;;;;;1.00;0.90;;;5.20;99.90;;;;;;5107794;28;20069;-77
2023/12/23 07:17:39;;;;;;;1.13;0.90;;;5.30;99.90;;;;;;5104635;28;20070;-77
2023/12/23 07:20:07;;;;;;;0.67;0.67;;;5.30;99.90;;;;;;5102714;28;20169;-77
2023/12/23 07:22:32;;;;;;;1.03;0.90;;;5.20;99.90;;;;;;5103993;28;20047;-78
2023/12/23 07:24:58;;;;;;;0.80;0.73;;;5.20;99.90;;;;;;5103493;28;20050;-77
2023/12/23 07:27:24;;;;;;;1.77;0.80;;;5.10;99.90;;;;;;5106081;28;20099;-77
2023/12/23 07:29:49;;;;;;;0.80;0.80;;;5.20;99.90;;;;;;5101194;28;20044;-77
2023/12/23 07:32:15;;;;;;;1.17;0.70;;;5.10;99.90;;;;;;5106766;28;20113;-76
2023/12/23 07:34:41;;;;;;;0.63;0.63;;;5.10;99.90;;;;;;5098862;28;20040;-76
2023/12/23 07:37:08;;;;;;;1.53;0.80;;;5.10;99.90;;;;;;5104661;28;20039;-76
2023/12/23 07:39:34;;;;;;;1.27;0.90;;;5.10;99.90;;;;;;5098000;28;20052;-77
2023/12/23 07:42:00;;;;;;;1.60;0.90;;;5.10;99.90;;;;;;5100244;28;20399;-80
2023/12/23 07:44:25;;;;;;;1.30;0.60;;;5.10;99.90;;;;;;5104214;28;20056;-76
2023/12/23 07:46:51;;;;;;;2.43;0.73;;;5.00;99.90;;;;;;5101567;28;20051;-76
2023/12/23 07:49:17;;;;;;;1.37;0.60;;;5.00;99.90;;;;;;5087306;28;20250;-76
2023/12/23 07:51:42;;;;;;;1.80;0.70;;;4.90;99.90;;;;;;5100997;28;20046;-77
2023/12/23 07:54:08;;;;;;;1.93;0.77;;;4.90;99.90;;;;;;5103856;28;20318;-75
2023/12/23 07:56:34;;;;;;;1.10;0.60;;;4.90;99.90;;;;;;5107239;28;20027;-77
2023/12/23 07:58:59;;;;;;;0.60;0.60;;;4.90;99.90;;;;;;5093521;28;20094;-77
2023/12/23 08:01:25;;;;;;;1.47;0.60;;;4.80;99.90;;;;;;5085060;28;20041;-78
2023/12/23 08:03:51;;;;;;;1.77;0.60;;;4.90;99.90;;;;;;5077775;28;20477;-78
2023/12/23 08:06:18;;;;;;;1.53;0.80;;;4.80;99.90;;;;;;5078887;28;20052;-77
2023/12/23 08:08:44;;;;;;;0.80;0.60;;;4.90;99.90;;;;;;5092691;28;20043;-77
2023/12/23 08:11:11;;;;;;;3.20;0.80;;;4.90;99.90;;;;;;5097717;28;20105;-77
2023/12/23 08:13:37;;;;;;;1.10;0.67;;;4.80;99.90;;;;;;5059831;28;20047;-84
2023/12/23 08:16:03;;;;;;;0.60;0.60;;;4.90;99.90;;;;;;5076161;28;20109;-78
2023/12/23 08:18:30;;;;;;;1.20;0.67;;;4.80;99.90;;;;;;5081826;28;20107;-78
2023/12/23 08:20:56;;;;;;;1.33;0.70;;;4.80;99.90;;;;;;5091121;28;20153;-78
2023/12/23 08:23:22;;;;;;;1.90;0.60;;;4.80;99.90;;;;;;5059953;28;20068;-78
2023/12/23 08:25:48;;;;;;;1.73;0.60;;;4.80;99.90;;;;;;5065239;28;20101;-78
2023/12/23 08:28:14;;;;;;;1.57;0.80;;;4.80;99.90;;;;;;5075987;28;20068;-78
2023/12/23 08:30:40;;;;;;;0.97;0.53;;;4.80;99.90;;;;;;5089263;28;20043;-78
2023/12/23 08:33:06;;;;;;;1.93;0.60;;;4.70;99.90;;;;;;5096675;28;20040;-79
2023/12/23 08:35:32;;;;;;;0.93;0.57;;;4.70;99.90;;;;;;5062564;28;20048;-78
2023/12/23 08:37:58;;;;;;;0.80;0.43;;;4.80;99.90;;;;;;5097615;28;20046;-80
2023/12/23 08:40:25;;;;;;;0.50;0.50;;;4.80;99.90;;;;;;5076221;28;20040;-80
2023/12/23 08:42:51;;;;;;;0.40;0.40;;;4.70;99.90;;;;;;5094379;28;20051;-80
2023/12/23 08:45:17;;;;;;;1.27;0.40;;;4.70;99.90;;;;;;5107933;28;20501;-81
2023/12/23 08:47:43;;;;;;;1.13;0.50;;;4.70;99.90;;;;;;5101554;28;20160;-80
2023/12/23 08:50:09;;;;;;;1.80;0.70;;;4.70;99.90;;;;;;5083782;28;20431;-79
2023/12/23 08:52:35;;;;;;;0.40;0.40;;;4.70;99.90;;;;;;5105738;28;20055;-85
2023/12/23 08:55:02;;;;;;;0.50;0.40;;;4.70;99.90;;;;;;5104839;28;20055;-84
2023/12/23 08:57:27;;;;;;;0.47;0.30;;;4.70;99.90;;;;;;5098520;28;20062;-84
2023/12/23 08:59:54;;;;;;;0.83;0.60;;;4.70;99.90;;;;;;5065440;28;20044;-83
2023/12/23 09:02:19;;;;;;;1.00;0.60;;;4.70;99.90;;;;;;5093503;28;20062;-83
2023/12/23 09:04:45;;;;;;;1.00;0.70;;;4.80;99.90;;;;;;5092623;28;20044;-83
2023/12/23 09:07:12;;;;;;;0.87;0.50;;;4.80;99.90;;;;;;5076091;28;20146;-82
2023/12/23 09:09:40;;;;;;;0.73;0.50;;;4.80;99.90;;;;;;5097466;28;20372;-82
2023/12/23 09:12:07;;;;;;;0.73;0.70;;;4.90;99.90;;;;;;5095727;28;20107;-83
2023/12/23 09:14:32;;;;;;;2.10;0.60;;;4.90;99.90;;;;;;5096435;28;20036;-81
2023/12/23 09:16:58;;;;;;;1.07;0.47;;;4.90;99.90;;;;;;5093991;28;20154;-82
2023/12/23 09:19:24;;;;;;;0.40;0.40;;;4.90;99.90;;;;;;5092324;28;20033;-78
2023/12/23 09:21:50;;;;;;;0.50;0.50;;;5.00;99.90;;;;;;5103235;28;20040;-82
2023/12/23 09:24:16;;;;;;;0.70;0.57;;;4.90;99.90;;;;;;5096914;28;20028;-83
2023/12/23 09:26:42;;;;;;;0.43;0.43;;;4.90;99.90;;;;;;5108074;28;20050;-84
2023/12/23 09:29:08;;;;;;;0.40;0.40;;;4.90;99.90;;;;;;5080524;28;20051;-82
2023/12/23 09:31:34;;;;;;;0.60;0.60;;;4.90;99.90;;;;;;5104779;28;20055;-82
2023/12/23 09:34:00;;;;;;;0.50;0.50;;;4.90;99.90;;;;;;5106225;28;20044;-82
2023/12/23 09:36:26;;;;;;;0.50;0.50;;;4.90;99.90;;;;;;5109148;28;20051;-82
2023/12/23 09:38:53;;;;;;;0.70;0.50;;;4.90;99.90;;;;;;5087105;28;20044;-82
2023/12/23 09:41:19;;;;;;;0.57;0.47;;;5.00;99.90;;;;;;5103825;28;20426;-83
2023/12/23 09:43:44;;;;;;;0.53;0.53;;;5.00;99.90;;;;;;5101391;28;20048;-82
2023/12/23 09:46:15;;;;;;;0.50;0.40;;;5.00;99.90;;;;;;5109262;28;20035;-82
2023/12/23 09:48:41;;;;;;;1.43;0.90;;;5.00;99.90;;;;;;5107459;28;20044;-82
2023/12/23 09:51:07;;;;;;;1.53;1.00;;;5.00;99.90;;;;;;5098263;28;20123;-82
2023/12/23 09:53:39;;;;;;;0.87;0.60;;;5.10;99.90;;;;;;5102087;28;20039;-82
2023/12/23 09:56:07;;;;;;;1.00;0.70;;;5.10;99.90;;;;;;5103124;28;20586;-79
2023/12/23 09:58:34;;;;;;;2.27;0.70;;;5.10;99.90;;;;;;5095317;28;20047;-78
2023/12/23 10:01:00;;;;;;;0.93;0.60;;;5.20;99.90;;;;;;5076521;28;20090;-79
2023/12/23 10:03:26;;;;;;;0.80;0.80;;;5.20;99.90;;;;;;5095029;28;20040;-79
2023/12/23 10:05:52;;;;;;;3.40;2.80;;;5.20;99.90;;;;;;5061895;28;20048;-79
2023/12/23 10:08:18;;;;;;;1.43;1.33;;;5.20;99.90;;;;;;5054835;28;20403;-79
2023/12/23 10:10:46;;;;;;;0.60;0.60;;;5.20;99.90;;;;;;5082251;28;20056;-79
2023/12/23 10:13:12;;;;;;;1.00;0.90;;;5.20;99.90;;;;;;5080313;28;20036;-79
2023/12/23 10:15:41;;;;;;;1.30;1.20;;;5.20;99.90;;;;;;5098773;28;20044;-79
2023/12/23 10:18:15;;;;;;;1.47;0.87;;;5.20;99.90;;;;;;5099389;28;20099;-78
2023/12/23 10:20:43;;;;;;;1.13;1.00;;;5.20;99.90;;;;;;5098578;28;20055;-79
2023/12/23 10:23:10;;;;;;;1.63;1.10;;;5.20;99.90;;;;;;5083460;28;20621;-78
2023/12/23 10:25:36;;;;;;;1.10;1.00;;;5.30;99.90;;;;;;5101631;28;20036;-78
2023/12/23 10:28:06;;;;;;;1.87;1.10;;;5.30;99.90;;;;;;5102846;28;20055;-79
2023/12/23 10:30:40;;;;;;;0.60;0.60;;;5.30;99.90;;;;;;5074749;28;20438;-75
2023/12/23 10:33:07;;;;;;;0.70;0.70;;;5.40;99.90;;;;;;5107334;28;20127;-80
2023/12/23 10:35:45;;;;;;;0.87;0.70;;;5.40;99.90;;;;;;5103459;28;20108;-79
2023/12/23 10:38:16;;;;;;;1.87;0.73;;;5.40;99.90;;;;;;5099788;28;20052;-79
2023/12/23 10:41:09;;;;;;;1.70;0.60;;;5.40;99.90;;;;;;5100041;28;20135;-80
2023/12/23 10:43:37;;;;;;;0.40;0.40;;;5.40;99.90;;;;;;5096902;28;20079;-80
2023/12/23 10:46:06;;;;;;;0.40;0.40;;;5.40;99.90;;;;;;5081391;28;20047;-79
2023/12/23 10:48:34;;;;;;;0.57;0.40;;;5.40;99.90;;;;;;5099486;28;20079;-78
2023/12/23 10:51:01;;;;;;;0.50;0.50;;;5.40;99.90;;;;;;5103351;28;20108;-79
2023/12/23 10:53:28;;;;;;;0.40;0.40;;;5.30;99.90;;;;;;5097951;28;20047;-79
2023/12/23 10:55:54;;;;;;;0.30;0.30;;;5.40;99.90;;;;;;5079112;28;20051;-79
2023/12/23 10:58:21;;;;;;;0.33;0.33;;;5.40;99.90;;;;;;5099403;28;20085;-79
2023/12/23 11:00:48;;;;;;;0.50;0.50;;;5.40;99.90;;;;;;5100443;28;20048;-79
2023/12/23 11:03:14;;;;;;;0.40;0.40;;;5.40;99.90;;;;;;5081682;28;20036;-80
2023/12/23 11:05:41;;;;;;;0.50;0.50;;;5.40;99.90;;;;;;5062082;28;20119;-77
2023/12/23 11:08:13;;;;;;;0.60;0.50;;;5.40;99.90;;;;;;5042632;28;20131;-84
2023/12/23 11:10:40;;;;;;;0.40;0.40;;;5.50;99.90;;;;;;5081440;22;20045;-80
2023/12/23 11:13:07;;;;;;;0.50;0.50;;;5.40;99.90;;;;;;5041877;28;20055;-80
2023/12/23 11:15:36;;;;;;;0.50;0.50;;;5.50;99.90;;;;;;5060392;28;20045;-83
2023/12/23 11:18:02;;;;;;;0.80;0.80;;;5.50;99.90;;;;;;5048168;28;20049;-80
2023/12/23 11:20:36;;;;;;;1.20;1.10;;;5.50;99.90;;;;;;5053590;28;20049;-79
2023/12/23 11:23:30;;;;;;;1.20;1.10;;;5.50;99.90;;;;;;5053721;28;20049;-79
2023/12/23 11:25:56;;;;;;;1.37;1.27;;;5.60;99.90;;;;;;5052677;28;20077;-80
2023/12/23 11:28:25;;;;;;;1.63;1.53;;;5.60;99.90;;;;;;5063153;28;20041;-79
2023/12/23 11:30:55;;;;;;;2.20;2.00;;;5.60;99.90;;;;;;5063145;28;20048;-79
2023/12/23 11:33:27;;;;;;;3.20;2.90;;;5.70;99.90;;;;;;5076902;28;20040;-78
2023/12/23 11:35:58;;;;;;;3.13;2.83;;;5.60;99.90;;;;;;5064905;28;20509;-79
2023/12/23 11:38:48;;;;;;;3.70;3.27;;;5.70;99.90;;;;;;5044131;28;20609;-80
2023/12/23 11:41:15;;;;;;;4.67;3.50;;;5.70;99.90;;;;;;5045089;28;20627;-80
2023/12/23 11:43:42;;;;;;;4.20;3.33;;;5.70;99.90;;;;;;5061374;28;20049;-80
2023/12/23 11:46:08;;;;;;;3.20;2.90;;;5.80;99.90;;;;;;5064474;28;20040;-81
2023/12/23 11:48:34;;;;;;;3.23;2.87;;;5.80;99.90;;;;;;5045900;28;20045;-80
2023/12/23 11:51:00;;;;;;;2.50;2.30;;;5.80;99.90;;;;;;5068856;28;20045;-80
2023/12/23 11:53:26;;;;;;;2.60;2.00;;;5.80;99.90;;;;;;5059334;28;20048;-80
2023/12/23 11:55:52;;;;;;;2.00;1.90;;;5.90;99.90;;;;;;5065060;28;20048;-81
2023/12/23 11:58:18;;;;;;;2.00;1.80;;;5.90;99.90;;;;;;5058060;28;20067;-81
2023/12/23 12:00:51;;;;;;;2.03;1.47;;;6.00;99.90;;;;;;5058264;28;20032;-80
2023/12/23 12:03:16;;;;;;;1.67;1.17;;;6.00;99.90;;;;;;5060924;28;20053;-81
2023/12/23 12:05:42;;;;;;;1.30;1.20;;;6.10;99.90;;;;;;5066344;28;20044;-80
2023/12/23 12:08:08;;;;;;;1.40;1.30;;;6.10;99.90;;;;;;5062870;28;20075;-78
2023/12/23 12:10:33;;;;;;;1.57;1.47;;;6.20;99.90;;;;;;5054102;28;20043;-78
2023/12/23 12:13:00;;;;;;;1.60;1.50;;;6.20;99.90;;;;;;5033709;28;20052;-79
2023/12/23 12:15:26;;;;;;;2.10;1.80;;;6.20;99.90;;;;;;5059351;28;20045;-79
2023/12/23 12:17:54;;;;;;;2.73;2.20;;;6.20;99.90;;;;;;5053626;28;20503;-79
2023/12/23 12:20:26;;;;;;;2.80;2.00;;;6.20;99.90;;;;;;5049759;28;20142;-80
2023/12/23 12:22:53;;;;;;;2.17;1.50;;;6.20;99.90;;;;;;5013097;28;20051;-79
2023/12/23 12:25:19;;;;;;;2.07;1.57;;;6.30;99.90;;;;;;5055477;28;20053;-79
2023/12/23 12:27:46;;;;;;;2.07;1.53;;;6.30;99.90;;;;;;5048120;28;20127;-79
2023/12/23 12:30:12;;;;;;;2.57;1.67;;;6.20;99.90;;;;;;5057020;28;20081;-79
2023/12/23 12:32:58;;;;;;;2.47;1.97;;;6.30;99.90;;;;;;5057124;28;20121;-79
2023/12/23 12:35:24;;;;;;;2.20;2.00;;;6.30;99.90;;;;;;5040812;28;20409;-78
2023/12/23 12:37:50;;;;;;;4.43;2.37;;;6.40;99.90;;;;;;5054630;28;20471;-79
2023/12/23 12:40:16;;;;;;;3.47;2.40;;;6.30;99.90;;;;;;5056346;28;20065;-78
2023/12/23 12:42:46;;;;;;;2.27;2.00;;;6.30;99.90;;;;;;5052629;28;20080;-78
2023/12/23 12:45:14;;;;;;;3.10;2.80;;;6.40;99.90;;;;;;5047240;28;20061;-78
2023/12/23 12:47:40;;;;;;;4.07;2.67;;;6.50;99.90;;;;;;5053611;28;20496;-78
2023/12/23 12:50:06;;;;;;;5.10;3.10;;;6.40;99.90;;;;;;5071555;28;20339;-77
2023/12/23 12:52:33;;;;;;;8.43;3.10;;;6.50;99.90;;;;;;5067065;28;20119;-78